createdAt,value
2022-12-01T00:01:20.400Z,98525.00
2022-12-01T00:03:48.351Z,98530.00
2022-12-01T00:06:17.972Z,98535.00
2022-12-01T00:09:07.652Z,98527.00
2022-12-01T00:11:37.277Z,98536.00
2022-12-01T00:14:05.820Z,98536.00
2022-12-01T00:16:34.330Z,98527.00
2022-12-01T00:19:02.179Z,98529.00
2022-12-01T00:21:29.942Z,98526.00
2022-12-01T00:23:58.894Z,98526.00
2022-12-01T00:26:27.749Z,98528.00
2022-12-01T00:28:58.943Z,98525.00
2022-12-01T00:31:27.805Z,98524.00
2022-12-01T00:33:56.090Z,98527.00
2022-12-01T00:36:24.340Z,98534.00
2022-12-01T00:38:53.574Z,98529.00
2022-12-01T00:41:21.842Z,98522.00
2022-12-01T00:43:49.896Z,98535.00
2022-12-01T00:46:19.077Z,98535.00
2022-12-01T00:48:47.013Z,98539.00
2022-12-01T00:51:14.661Z,98537.00
2022-12-01T00:53:42.366Z,98540.00
2022-12-01T00:56:10.011Z,98542.00
2022-12-01T00:58:37.841Z,98537.00
2022-12-01T01:01:05.806Z,98536.00
2022-12-01T01:03:35.341Z,98540.00
2022-12-01T01:06:08.023Z,98542.00
2022-12-01T01:08:36.172Z,98542.00
2022-12-01T01:11:04.639Z,98546.00
2022-12-01T01:13:32.982Z,98541.00
2022-12-01T01:16:02.226Z,98540.00
2022-12-01T01:18:30.502Z,98540.00
2022-12-01T01:21:00.728Z,98537.00
2022-12-01T01:23:28.428Z,98540.00
2022-12-01T01:26:03.016Z,98530.00
2022-12-01T01:28:31.018Z,98546.00
2022-12-01T01:30:58.746Z,98545.00
2022-12-01T01:33:26.725Z,98548.00
2022-12-01T01:35:54.448Z,98530.00
2022-12-01T01:38:23.780Z,98542.00
2022-12-01T01:40:51.487Z,98544.00
2022-12-01T01:43:41.781Z,98550.00
2022-12-01T01:46:11.087Z,98545.00
2022-12-01T01:48:41.072Z,98545.00
2022-12-01T01:51:09.692Z,98540.00
2022-12-01T01:53:38.748Z,98551.00
2022-12-01T01:56:08.390Z,98558.00
2022-12-01T01:58:37.868Z,98550.00
2022-12-01T02:01:06.314Z,98554.00
2022-12-01T02:03:35.260Z,98544.00
2022-12-01T02:06:05.164Z,98555.00
2022-12-01T02:08:35.947Z,98546.00
2022-12-01T02:11:49.351Z,98555.00
2022-12-01T02:14:40.310Z,98546.00
2022-12-01T02:17:21.404Z,98545.00
2022-12-01T02:20:15.364Z,98544.00
2022-12-01T02:22:54.061Z,98552.00
2022-12-01T02:25:34.026Z,98545.00
2022-12-01T02:28:34.531Z,98544.00
2022-12-01T02:31:12.712Z,98548.00
2022-12-01T02:33:51.159Z,98542.00
2022-12-01T02:36:24.654Z,98542.00
2022-12-01T02:38:57.072Z,98539.00
2022-12-01T02:41:29.535Z,98542.00
2022-12-01T02:44:04.354Z,98536.00
2022-12-01T02:46:37.248Z,98541.00
2022-12-01T02:49:11.244Z,98536.00
2022-12-01T02:51:44.635Z,98528.00
2022-12-01T02:54:14.388Z,98536.00
2022-12-01T02:56:45.670Z,98531.00
2022-12-01T02:59:14.887Z,98520.00
2022-12-01T03:01:54.841Z,98520.00
2022-12-01T03:04:36.929Z,98510.00
2022-12-01T03:07:13.754Z,98520.00
2022-12-01T03:09:55.401Z,98513.00
2022-12-01T03:12:30.886Z,98514.00
2022-12-01T03:15:08.038Z,98524.00
2022-12-01T03:17:45.839Z,98515.00
2022-12-01T03:20:17.859Z,98515.00
2022-12-01T03:22:49.683Z,98519.00
2022-12-01T03:25:19.287Z,98517.00
2022-12-01T03:28:19.172Z,98515.00
2022-12-01T03:30:39.563Z,98504.00
2022-12-01T03:33:14.385Z,98509.00
2022-12-01T03:35:48.083Z,98507.00
2022-12-01T03:38:20.017Z,98503.00
2022-12-01T03:40:50.483Z,98505.00
2022-12-01T03:43:22.255Z,98508.00
2022-12-01T03:45:57.829Z,98511.00
2022-12-01T03:48:27.980Z,98520.00
2022-12-01T03:51:03.100Z,98518.00
2022-12-01T03:53:38.084Z,98510.00
2022-12-01T03:56:08.184Z,98514.00
2022-12-01T03:58:40.354Z,98520.00
2022-12-01T04:01:08.932Z,98519.00
2022-12-01T04:03:37.931Z,98515.00
2022-12-01T04:06:06.440Z,98518.00
2022-12-01T04:08:34.283Z,98518.00
2022-12-01T04:11:21.979Z,98513.00
2022-12-01T04:13:48.656Z,98511.00
2022-12-01T04:16:16.592Z,98514.00
2022-12-01T04:18:45.885Z,98511.00
2022-12-01T04:21:13.535Z,98514.00
2022-12-01T04:23:58.570Z,98512.00
2022-12-01T04:26:26.276Z,98507.00
2022-12-01T04:28:53.949Z,98504.00
2022-12-01T04:31:21.699Z,98503.00
2022-12-01T04:33:50.731Z,98511.00
2022-12-01T04:36:18.434Z,98512.00
2022-12-01T04:38:46.109Z,98516.00
2022-12-01T04:41:15.121Z,98509.00
2022-12-01T04:43:42.951Z,98506.00
2022-12-01T04:46:11.251Z,98506.00
2022-12-01T04:48:39.992Z,98509.00
2022-12-01T04:51:09.880Z,98500.00
2022-12-01T04:53:38.017Z,98511.00
2022-12-01T04:56:06.331Z,98512.00
2022-12-01T04:58:35.179Z,98503.00
2022-12-01T05:01:04.059Z,98514.00
2022-12-01T05:03:31.781Z,98516.00
2022-12-01T05:06:03.451Z,98517.00
2022-12-01T05:08:32.492Z,98520.00
2022-12-01T05:11:00.139Z,98518.00
2022-12-01T05:13:28.460Z,98517.00
2022-12-01T05:16:05.779Z,98515.00
2022-12-01T05:18:33.505Z,98512.00
2022-12-01T05:21:00.261Z,98520.00
2022-12-01T05:23:29.748Z,98516.00
2022-12-01T05:25:58.780Z,98517.00
2022-12-01T05:28:27.933Z,98513.00
2022-12-01T05:30:55.995Z,98506.00
2022-12-01T05:33:24.736Z,98502.00
2022-12-01T05:35:53.128Z,98499.00
2022-12-01T05:38:21.601Z,98495.00
2022-12-01T05:40:53.275Z,98501.00
2022-12-01T05:43:29.081Z,98495.00
2022-12-01T05:45:57.879Z,98503.00
2022-12-01T05:48:26.087Z,98499.00
2022-12-01T05:50:53.756Z,98499.00
2022-12-01T05:53:21.468Z,98494.00
2022-12-01T05:55:53.286Z,98499.00
2022-12-01T05:58:22.514Z,98495.00
2022-12-01T06:00:50.215Z,98494.00
2022-12-01T06:03:17.905Z,98497.00
2022-12-01T06:05:45.565Z,98498.00
2022-12-01T06:08:13.252Z,98501.00
2022-12-01T06:10:40.988Z,98497.00
2022-12-01T06:13:08.751Z,98502.00
2022-12-01T06:15:37.733Z,98499.00
2022-12-01T06:18:05.537Z,98498.00
2022-12-01T06:20:33.182Z,98495.00
2022-12-01T06:23:00.975Z,98499.00
2022-12-01T06:25:28.708Z,98503.00
2022-12-01T06:27:57.742Z,98506.00
2022-12-01T06:30:25.943Z,98513.00
2022-12-01T06:32:54.962Z,98512.00
2022-12-01T06:35:22.648Z,98515.00
2022-12-01T06:37:50.383Z,98517.00
2022-12-01T06:40:18.403Z,98519.00
2022-12-01T06:42:46.284Z,98517.00
2022-12-01T06:45:13.972Z,98523.00
2022-12-01T06:47:41.809Z,98524.00
2022-12-01T06:50:12.326Z,98522.00
2022-12-01T06:52:40.043Z,98525.00
2022-12-01T06:55:08.262Z,98534.00
2022-12-01T06:57:36.108Z,98530.00
2022-12-01T07:00:05.506Z,98526.00
2022-12-01T07:02:33.630Z,98535.00
2022-12-01T07:05:01.323Z,98529.00
2022-12-01T07:07:30.821Z,98544.00
2022-12-01T07:09:58.489Z,98529.00
2022-12-01T07:12:26.164Z,98536.00
2022-12-01T07:14:53.857Z,98522.00
2022-12-01T07:17:21.522Z,98535.00
2022-12-01T07:19:49.511Z,98536.00
2022-12-01T07:22:17.639Z,98537.00
2022-12-01T07:24:46.730Z,98536.00
2022-12-01T07:27:14.426Z,98538.00
2022-12-01T07:29:42.146Z,98547.00
2022-12-01T07:32:09.817Z,98542.00
2022-12-01T07:34:37.507Z,98546.00
2022-12-01T07:37:05.198Z,98542.00
2022-12-01T07:39:32.899Z,98549.00
2022-12-01T07:42:01.895Z,98545.00
2022-12-01T07:44:29.603Z,98542.00
2022-12-01T07:46:57.291Z,98540.00
2022-12-01T07:49:25.164Z,98543.00
2022-12-01T07:51:52.808Z,98548.00
2022-12-01T07:54:21.334Z,98547.00
2022-12-01T07:56:49.003Z,98548.00
2022-12-01T07:59:18.227Z,98546.00
2022-12-01T08:01:46.302Z,98544.00
2022-12-01T08:04:14.096Z,98544.00
2022-12-01T08:06:41.786Z,98545.00
2022-12-01T08:09:09.511Z,98545.00
2022-12-01T08:11:37.261Z,98545.00
2022-12-01T08:14:05.008Z,98538.00
2022-12-01T08:16:34.153Z,98543.00
2022-12-01T08:19:01.820Z,98551.00
2022-12-01T08:21:29.783Z,98551.00
2022-12-01T08:23:58.477Z,98538.00
2022-12-01T08:26:26.954Z,98539.00
2022-12-01T08:28:54.641Z,98542.00
2022-12-01T08:31:24.210Z,98546.00
2022-12-01T08:33:53.717Z,98543.00
2022-12-01T08:36:22.663Z,98552.00
2022-12-01T08:38:51.551Z,98546.00
2022-12-01T08:41:19.518Z,98551.00
2022-12-01T08:43:57.895Z,98544.00
2022-12-01T08:46:27.323Z,98544.00
2022-12-01T08:48:57.876Z,98544.00
2022-12-01T08:51:26.589Z,98550.00
2022-12-01T08:53:56.705Z,98545.00
2022-12-01T08:56:26.358Z,98549.00
2022-12-01T08:58:55.361Z,98553.00
2022-12-01T09:01:23.068Z,98558.00
2022-12-01T09:04:05.077Z,98551.00
2022-12-01T09:06:38.538Z,98557.00
2022-12-01T09:09:06.401Z,98558.00
2022-12-01T09:11:34.144Z,98561.00
2022-12-01T09:14:01.837Z,98556.00
2022-12-01T09:16:29.575Z,98562.00
2022-12-01T09:18:57.371Z,98565.00
2022-12-01T09:21:27.377Z,98565.00
2022-12-01T09:23:56.377Z,98558.00
2022-12-01T09:26:24.100Z,98566.00
2022-12-01T09:28:54.669Z,98570.00
2022-12-01T09:31:23.526Z,98564.00
2022-12-01T09:33:55.355Z,98574.00
2022-12-01T09:36:23.119Z,98572.00
2022-12-01T09:38:50.749Z,98563.00
2022-12-01T09:41:23.890Z,98563.00
2022-12-01T09:43:56.922Z,98558.00
2022-12-01T09:46:30.453Z,98555.00
2022-12-01T09:48:59.535Z,98554.00
2022-12-01T09:51:29.859Z,98552.00
2022-12-01T09:54:00.681Z,98554.00
2022-12-01T09:56:32.127Z,98550.00
2022-12-01T09:59:02.355Z,98545.00
2022-12-01T10:01:34.396Z,98540.00
2022-12-01T10:04:08.866Z,98546.00
2022-12-01T10:06:40.401Z,98541.00
2022-12-01T10:09:19.130Z,98541.00
2022-12-01T10:11:49.383Z,98530.00
2022-12-01T10:14:20.637Z,98525.00
2022-12-01T10:16:59.926Z,98527.00
2022-12-01T10:19:34.821Z,98527.00
2022-12-01T10:22:25.656Z,98526.00
2022-12-01T10:24:56.275Z,98520.00
2022-12-01T10:27:41.867Z,98511.00
2022-12-01T10:30:15.471Z,98509.00
2022-12-01T10:32:51.093Z,98507.00
2022-12-01T10:35:20.945Z,98506.00
2022-12-01T10:37:57.630Z,98500.00
2022-12-01T10:40:31.014Z,98507.00
2022-12-01T10:43:00.087Z,98496.00
2022-12-01T10:45:29.738Z,98494.00
2022-12-01T10:48:15.805Z,98499.00
2022-12-01T10:50:44.369Z,98492.00
2022-12-01T10:53:28.381Z,98493.00
2022-12-01T10:56:05.208Z,98499.00
2022-12-01T10:58:40.301Z,98499.00
2022-12-01T11:01:08.260Z,98491.00
2022-12-01T11:03:37.343Z,98496.00
2022-12-01T11:06:08.325Z,98495.00
2022-12-01T11:08:41.419Z,98494.00
2022-12-01T11:11:25.027Z,98485.00
2022-12-01T11:13:55.436Z,98489.00
2022-12-01T11:16:38.858Z,98490.00
2022-12-01T11:19:23.489Z,98486.00
2022-12-01T11:21:56.231Z,98484.00
2022-12-01T11:24:43.007Z,98484.00
2022-12-01T11:27:18.317Z,98477.00
2022-12-01T11:29:50.226Z,98488.00
2022-12-01T11:32:23.327Z,98480.00
2022-12-01T11:34:54.932Z,98473.00
2022-12-01T11:37:25.292Z,98479.00
2022-12-01T11:39:53.559Z,98483.00
2022-12-01T11:42:26.170Z,98478.00
2022-12-01T11:44:56.999Z,98472.00
2022-12-01T11:47:26.991Z,98473.00
2022-12-01T11:49:57.433Z,98469.00
2022-12-01T11:52:28.887Z,98461.00
2022-12-01T11:55:01.514Z,98474.00
2022-12-01T11:57:34.850Z,98471.00
2022-12-01T12:00:13.349Z,98471.00
2022-12-01T12:02:47.542Z,98468.00
2022-12-01T12:05:57.643Z,98465.00
2022-12-01T12:08:44.456Z,98471.00
2022-12-01T12:11:18.029Z,98468.00
2022-12-01T12:14:01.184Z,98460.00
2022-12-01T12:16:45.726Z,98461.00
2022-12-01T12:19:33.894Z,98456.00
2022-12-01T12:22:23.661Z,98459.00
2022-12-01T12:25:03.313Z,98445.00
2022-12-01T12:27:40.930Z,98448.00
2022-12-01T12:30:20.614Z,98444.00
2022-12-01T12:33:09.650Z,98439.00
2022-12-01T12:35:45.372Z,98443.00
2022-12-01T12:38:27.293Z,98438.00
2022-12-01T12:40:58.589Z,98434.00
2022-12-01T12:43:33.273Z,98431.00
2022-12-01T12:46:06.005Z,98432.00
2022-12-01T12:49:23.715Z,98431.00
2022-12-01T12:51:56.858Z,98431.00
2022-12-01T12:54:30.667Z,98429.00
2022-12-01T12:57:04.177Z,98425.00
2022-12-01T12:59:37.302Z,98425.00
2022-12-01T13:02:13.612Z,98427.00
2022-12-01T13:04:49.901Z,98434.00
2022-12-01T13:07:30.682Z,98425.00
2022-12-01T13:10:04.025Z,98441.00
2022-12-01T13:12:36.037Z,98440.00
2022-12-01T13:15:14.666Z,98431.00
2022-12-01T13:17:48.426Z,98424.00
2022-12-01T13:20:21.237Z,98424.00
2022-12-01T13:22:50.182Z,98425.00
2022-12-01T13:25:25.268Z,98419.00
2022-12-01T13:27:59.902Z,98415.00
2022-12-01T13:30:31.152Z,98417.00
2022-12-01T13:33:04.073Z,98415.00
2022-12-01T13:35:35.378Z,98413.00
2022-12-01T13:38:22.638Z,98419.00
2022-12-01T13:40:50.779Z,98420.00
2022-12-01T13:43:20.491Z,98412.00
2022-12-01T13:45:49.439Z,98414.00
2022-12-01T13:48:50.022Z,98417.00
2022-12-01T13:51:19.200Z,98421.00
2022-12-01T13:54:04.550Z,98410.00
2022-12-01T13:57:01.760Z,98409.00
2022-12-01T14:00:23.903Z,98413.00
2022-12-01T14:03:27.760Z,98407.00
2022-12-01T14:05:57.265Z,98404.00
2022-12-01T14:08:28.744Z,98407.00
2022-12-01T14:10:59.321Z,98409.00
2022-12-01T14:13:28.720Z,98397.00
2022-12-01T14:15:58.824Z,98399.00
2022-12-01T14:18:33.175Z,98401.00
2022-12-01T14:21:02.235Z,98406.00
2022-12-01T14:23:34.066Z,98405.00
2022-12-01T14:26:16.919Z,98405.00
2022-12-01T14:29:21.070Z,98405.00
2022-12-01T14:32:22.271Z,98408.00
2022-12-01T14:34:55.449Z,98410.00
2022-12-01T14:37:25.771Z,98416.00
2022-12-01T14:39:59.111Z,98411.00
2022-12-01T14:42:50.896Z,98411.00
2022-12-01T14:45:22.980Z,98404.00
2022-12-01T14:47:57.755Z,98403.00
2022-12-01T14:50:32.521Z,98409.00
2022-12-01T14:53:07.322Z,98402.00
2022-12-01T14:55:39.895Z,98403.00
2022-12-01T14:58:14.035Z,98407.00
2022-12-01T15:00:55.068Z,98403.00
2022-12-01T15:03:28.958Z,98408.00
2022-12-01T15:05:59.531Z,98410.00
2022-12-01T15:08:58.252Z,98414.00
2022-12-01T15:11:25.271Z,98420.00
2022-12-01T15:13:55.129Z,98403.00
2022-12-01T15:16:24.691Z,98412.00
2022-12-01T15:18:53.332Z,98406.00
2022-12-01T15:21:23.238Z,98409.00
2022-12-01T15:23:58.595Z,98410.00
2022-12-01T15:26:30.056Z,98408.00
2022-12-01T15:29:16.359Z,98417.00
2022-12-01T15:31:45.669Z,98413.00
2022-12-01T15:34:17.068Z,98414.00
2022-12-01T15:36:45.487Z,98414.00
2022-12-01T15:39:17.140Z,98419.00
2022-12-01T15:41:47.964Z,98427.00
2022-12-01T15:44:21.098Z,98416.00
2022-12-01T15:46:48.891Z,98416.00
2022-12-01T15:49:19.651Z,98419.00
2022-12-01T15:51:48.969Z,98413.00
2022-12-01T15:54:20.293Z,98413.00
2022-12-01T15:56:53.482Z,98419.00
2022-12-01T15:59:29.122Z,98418.00
2022-12-01T16:01:57.209Z,98414.00
2022-12-01T16:04:27.353Z,98425.00
2022-12-01T16:06:59.269Z,98415.00
2022-12-01T16:09:30.450Z,98430.00
2022-12-01T16:12:07.633Z,98420.00
2022-12-01T16:14:35.729Z,98414.00
2022-12-01T16:17:05.178Z,98421.00
2022-12-01T16:19:35.915Z,98413.00
2022-12-01T16:22:14.195Z,98415.00
2022-12-01T16:24:46.543Z,98416.00
2022-12-01T16:27:22.202Z,98418.00
2022-12-01T16:29:52.960Z,98411.00
2022-12-01T16:32:23.384Z,98412.00
2022-12-01T16:34:53.119Z,98415.00
2022-12-01T16:37:21.589Z,98415.00
2022-12-01T16:39:49.359Z,98412.00
2022-12-01T16:42:20.541Z,98412.00
2022-12-01T16:44:49.562Z,98412.00
2022-12-01T16:47:20.235Z,98409.00
2022-12-01T16:49:48.020Z,98410.00
2022-12-01T16:52:43.034Z,98415.00
2022-12-01T16:55:03.749Z,98406.00
2022-12-01T16:57:32.679Z,98407.00
2022-12-01T17:00:00.342Z,98414.00
2022-12-01T17:02:28.050Z,98422.00
2022-12-01T17:04:55.793Z,98423.00
2022-12-01T17:07:23.503Z,98422.00
2022-12-01T17:09:51.247Z,98417.00
2022-12-01T17:12:18.856Z,98429.00
2022-12-01T17:14:48.160Z,98432.00
2022-12-01T17:17:15.991Z,98428.00
2022-12-01T17:19:43.648Z,98428.00
2022-12-01T17:22:11.276Z,98431.00
2022-12-01T17:24:39.114Z,98426.00
2022-12-01T17:27:06.714Z,98426.00
2022-12-01T17:29:34.614Z,98427.00
2022-12-01T17:32:03.569Z,98432.00
2022-12-01T17:34:31.242Z,98429.00
2022-12-01T17:36:58.853Z,98420.00
2022-12-01T17:39:26.549Z,98422.00
2022-12-01T17:41:54.997Z,98428.00
2022-12-01T17:44:22.602Z,98428.00
2022-12-01T17:46:50.291Z,98427.00
2022-12-01T17:49:19.405Z,98424.00
2022-12-01T17:51:47.335Z,98425.00
2022-12-01T17:54:15.026Z,98432.00
2022-12-01T17:56:42.931Z,98430.00
2022-12-01T17:59:10.695Z,98431.00
2022-12-01T18:01:38.387Z,98438.00
2022-12-01T18:04:06.428Z,98431.00
2022-12-01T18:06:35.514Z,98437.00
2022-12-01T18:09:03.204Z,98430.00
2022-12-01T18:11:30.792Z,98437.00
2022-12-01T18:13:58.448Z,98433.00
2022-12-01T18:16:28.127Z,98428.00
2022-12-01T18:18:58.114Z,98436.00
2022-12-01T18:21:27.394Z,98446.00
2022-12-01T18:23:58.350Z,98444.00
2022-12-01T18:26:27.483Z,98444.00
2022-12-01T18:28:56.224Z,98450.00
2022-12-01T18:31:24.659Z,98440.00
2022-12-01T18:33:52.793Z,98445.00
2022-12-01T18:36:22.736Z,98447.00
2022-12-01T18:38:51.718Z,98457.00
2022-12-01T18:41:21.437Z,98447.00
2022-12-01T18:43:49.543Z,98451.00
2022-12-01T18:46:18.385Z,98448.00
2022-12-01T18:48:46.848Z,98449.00
2022-12-01T18:51:14.830Z,98444.00
2022-12-01T18:53:42.850Z,98443.00
2022-12-01T18:56:12.105Z,98442.00
2022-12-01T18:58:41.507Z,98441.00
2022-12-01T19:01:20.913Z,98437.00
2022-12-01T19:03:48.953Z,98439.00
2022-12-01T19:06:16.589Z,98438.00
2022-12-01T19:08:44.373Z,98443.00
2022-12-01T19:11:12.002Z,98438.00
2022-12-01T19:13:41.605Z,98438.00
2022-12-01T19:16:10.767Z,98439.00
2022-12-01T19:18:39.276Z,98436.00
2022-12-01T19:21:09.468Z,98439.00
2022-12-01T19:23:37.824Z,98438.00
2022-12-01T19:26:06.826Z,98442.00
2022-12-01T19:28:34.774Z,98436.00
2022-12-01T19:31:06.765Z,98433.00
2022-12-01T19:33:35.014Z,98438.00
2022-12-01T19:36:06.531Z,98425.00
2022-12-01T19:38:34.213Z,98424.00
2022-12-01T19:41:02.486Z,98429.00
2022-12-01T19:43:30.101Z,98429.00
2022-12-01T19:45:57.918Z,98430.00
2022-12-01T19:48:26.953Z,98426.00
2022-12-01T19:50:54.543Z,98433.00
2022-12-01T19:53:22.497Z,98430.00
2022-12-01T19:55:50.266Z,98428.00
2022-12-01T19:58:17.850Z,98432.00
2022-12-01T20:00:46.246Z,98436.00
2022-12-01T20:03:13.891Z,98431.00
2022-12-01T20:05:42.933Z,98440.00
2022-12-01T20:08:13.706Z,98443.00
2022-12-01T20:10:47.418Z,98437.00
2022-12-01T20:13:15.101Z,98440.00
2022-12-01T20:15:42.709Z,98438.00
2022-12-01T20:18:12.922Z,98445.00
2022-12-01T20:20:40.577Z,98446.00
2022-12-01T20:23:12.182Z,98436.00
2022-12-01T20:25:39.943Z,98446.00
2022-12-01T20:28:15.035Z,98439.00
2022-12-01T20:30:42.892Z,98441.00
2022-12-01T20:33:10.648Z,98447.00
2022-12-01T20:35:47.669Z,98448.00
2022-12-01T20:38:17.119Z,98439.00
2022-12-01T20:40:44.763Z,98438.00
2022-12-01T20:43:13.591Z,98438.00
2022-12-01T20:45:41.301Z,98438.00
2022-12-01T20:48:09.009Z,98434.00
2022-12-01T20:50:36.637Z,98438.00
2022-12-01T20:53:04.477Z,98438.00
2022-12-01T20:55:33.556Z,98434.00
2022-12-01T20:58:02.809Z,98436.00
2022-12-01T21:00:32.943Z,98433.00
2022-12-01T21:03:00.801Z,98438.00
2022-12-01T21:05:28.744Z,98433.00
2022-12-01T21:07:56.386Z,98436.00
2022-12-01T21:10:24.286Z,98433.00
2022-12-01T21:13:16.651Z,98431.00
2022-12-01T21:15:50.277Z,98427.00
2022-12-01T21:18:22.674Z,98432.00
2022-12-01T21:20:54.266Z,98429.00
2022-12-01T21:23:22.507Z,98422.00
2022-12-01T21:25:51.252Z,98429.00
2022-12-01T21:28:23.679Z,98422.00
2022-12-01T21:31:01.254Z,98422.00
2022-12-01T21:33:32.726Z,98427.00
2022-12-01T21:36:02.058Z,98426.00
2022-12-01T21:38:32.683Z,98420.00
2022-12-01T21:41:00.423Z,98425.00
2022-12-01T21:43:33.888Z,98420.00
2022-12-01T21:46:14.752Z,98420.00
2022-12-01T21:48:43.518Z,98421.00
2022-12-01T21:51:18.404Z,98422.00
2022-12-01T21:53:47.527Z,98413.00
2022-12-01T21:56:21.492Z,98424.00
2022-12-01T21:58:51.228Z,98418.00
2022-12-01T22:01:26.007Z,98409.00
2022-12-01T22:04:01.630Z,98411.00
2022-12-01T22:06:36.549Z,98415.00
2022-12-01T22:09:18.510Z,98418.00
2022-12-01T22:11:50.653Z,98419.00
2022-12-01T22:14:22.312Z,98417.00
2022-12-01T22:16:56.180Z,98411.00
2022-12-01T22:19:28.946Z,98416.00
2022-12-01T22:22:01.828Z,98403.00
2022-12-01T22:24:35.235Z,98412.00
2022-12-01T22:27:28.259Z,98410.00
2022-12-01T22:30:00.321Z,98413.00
2022-12-01T22:32:44.897Z,98408.00
2022-12-01T22:35:30.431Z,98410.00
2022-12-01T22:38:02.234Z,98411.00
2022-12-01T22:40:34.500Z,98409.00
2022-12-01T22:43:19.553Z,98405.00
2022-12-01T22:45:50.180Z,98400.00
2022-12-01T22:48:34.463Z,98398.00
2022-12-01T22:51:17.050Z,98394.00
2022-12-01T22:53:46.579Z,98401.00
2022-12-01T22:56:27.397Z,98398.00
2022-12-01T22:58:56.145Z,98391.00
2022-12-01T23:01:28.486Z,98401.00
2022-12-01T23:04:23.493Z,98396.00
2022-12-01T23:06:59.530Z,98396.00
2022-12-01T23:09:31.969Z,98389.00
2022-12-01T23:12:05.481Z,98391.00
2022-12-01T23:14:34.550Z,98398.00
2022-12-01T23:17:08.737Z,98386.00
2022-12-01T23:19:36.512Z,98377.00
2022-12-01T23:22:04.231Z,98378.00
2022-12-01T23:24:34.004Z,98380.00
2022-12-01T23:27:02.062Z,98381.00
2022-12-01T23:29:30.525Z,98380.00
2022-12-01T23:31:58.148Z,98382.00
2022-12-01T23:34:27.429Z,98377.00
2022-12-01T23:36:55.484Z,98375.00
2022-12-01T23:39:30.168Z,98372.00
2022-12-01T23:41:58.118Z,98371.00
2022-12-01T23:44:34.597Z,98370.00
2022-12-01T23:47:02.728Z,98374.00
2022-12-01T23:49:34.446Z,98365.00
2022-12-01T23:52:04.101Z,98362.00
2022-12-01T23:54:34.858Z,98363.00
2022-12-01T23:57:05.078Z,98366.00
2022-12-01T23:59:32.782Z,98364.00
